sensor_id;sensor_type;location;lat;lon;timestamp;pressure;altitude;pressure_sealevel;temperature;humidity
30554;BME280;17335;50.720;7.452;2023-04-10T00:00:19;99947.47;;;3.11;100.00
30554;BME280;17335;50.720;7.452;2023-04-10T00:02:45;99950.06;;;3.12;100.00
30554;BME280;17335;50.720;7.452;2023-04-10T00:05:12;99938.75;;;3.09;100.00
30554;BME280;17335;50.720;7.452;2023-04-10T00:07:39;99936.25;;;3.06;100.00
30554;BME280;17335;50.720;7.452;2023-04-10T00:10:06;99944.06;;;3.09;100.00
30554;BME280;17335;50.720;7.452;2023-04-10T00:15:32;99937.22;;;3.21;100.00
30554;BME280;17335;50.720;7.452;2023-04-10T00:17:58;99935.19;;;3.26;100.00
30554;BME280;17335;50.720;7.452;2023-04-10T00:20:25;99925.88;;;3.34;100.00
30554;BME280;17335;50.720;7.452;2023-04-10T00:22:52;99917.56;;;3.41;100.00
30554;BME280;17335;50.720;7.452;2023-04-10T00:25:19;99914.31;;;3.51;100.00
30554;BME280;17335;50.720;7.452;2023-04-10T00:27:45;99917.03;;;3.66;100.00
30554;BME280;17335;50.720;7.452;2023-04-10T00:30:12;99905.25;;;3.71;100.00
30554;BME280;17335;50.720;7.452;2023-04-10T00:32:39;99899.22;;;3.84;100.00
30554;BME280;17335;50.720;7.452;2023-04-10T00:35:07;99903.25;;;4.05;100.00
30554;BME280;17335;50.720;7.452;2023-04-10T00:37:33;99892.25;;;4.27;100.00
30554;BME280;17335;50.720;7.452;2023-04-10T00:40:00;99896.06;;;4.38;100.00
30554;BME280;17335;50.720;7.452;2023-04-10T00:42:27;99886.66;;;4.46;100.00
30554;BME280;17335;50.720;7.452;2023-04-10T00:44:53;99890.66;;;4.54;100.00
30554;BME280;17335;50.720;7.452;2023-04-10T00:47:20;99888.78;;;4.70;100.00
30554;BME280;17335;50.720;7.452;2023-04-10T00:49:47;99888.97;;;4.67;100.00
30554;BME280;17335;50.720;7.452;2023-04-10T00:52:14;99892.03;;;4.75;100.00
30554;BME280;17335;50.720;7.452;2023-04-10T00:54:41;99884.91;;;4.90;100.00
30554;BME280;17335;50.720;7.452;2023-04-10T00:57:08;99877.38;;;4.97;100.00
30554;BME280;17335;50.720;7.452;2023-04-10T00:59:35;99874.34;;;5.03;100.00
30554;BME280;17335;50.720;7.452;2023-04-10T01:02:02;99867.78;;;5.08;100.00
30554;BME280;17335;50.720;7.452;2023-04-10T01:04:30;99868.84;;;5.06;100.00
30554;BME280;17335;50.720;7.452;2023-04-10T01:06:58;99863.13;;;4.98;100.00
30554;BME280;17335;50.720;7.452;2023-04-10T01:15:04;99870.06;;;4.86;100.00
30554;BME280;17335;50.720;7.452;2023-04-10T01:17:51;99865.16;;;4.80;100.00
30554;BME280;17335;50.720;7.452;2023-04-10T01:20:23;99860.66;;;4.95;100.00
30554;BME280;17335;50.720;7.452;2023-04-10T01:25:47;99862.75;;;4.89;100.00
30554;BME280;17335;50.720;7.452;2023-04-10T01:31:16;99869.31;;;4.84;100.00
30554;BME280;17335;50.720;7.452;2023-04-10T01:33:49;99863.72;;;4.74;100.00
30554;BME280;17335;50.720;7.452;2023-04-10T01:36:32;99861.34;;;4.69;100.00
30554;BME280;17335;50.720;7.452;2023-04-10T01:39:00;99861.63;;;4.65;100.00
30554;BME280;17335;50.720;7.452;2023-04-10T01:41:27;99866.94;;;4.65;100.00
30554;BME280;17335;50.720;7.452;2023-04-10T01:43:56;99861.81;;;4.62;100.00
30554;BME280;17335;50.720;7.452;2023-04-10T01:46:24;99859.91;;;4.64;100.00
30554;BME280;17335;50.720;7.452;2023-04-10T01:48:53;99858.47;;;4.58;100.00
30554;BME280;17335;50.720;7.452;2023-04-10T01:51:21;99855.06;;;4.56;100.00
30554;BME280;17335;50.720;7.452;2023-04-10T01:53:48;99850.78;;;4.54;100.00
30554;BME280;17335;50.720;7.452;2023-04-10T01:56:16;99849.09;;;4.53;100.00
30554;BME280;17335;50.720;7.452;2023-04-10T01:58:43;99842.72;;;4.55;100.00
30554;BME280;17335;50.720;7.452;2023-04-10T02:03:43;99828.66;;;4.67;100.00
30554;BME280;17335;50.720;7.452;2023-04-10T02:06:16;99809.19;;;4.67;100.00
30554;BME280;17335;50.720;7.452;2023-04-10T02:08:54;99803.88;;;4.67;100.00
30554;BME280;17335;50.720;7.452;2023-04-10T02:11:56;99799.03;;;4.74;100.00
30554;BME280;17335;50.720;7.452;2023-04-10T02:14:26;99801.59;;;4.75;100.00
30554;BME280;17335;50.720;7.452;2023-04-10T02:16:55;99792.84;;;4.87;100.00
30554;BME280;17335;50.720;7.452;2023-04-10T02:19:24;99782.88;;;5.18;100.00
30554;BME280;17335;50.720;7.452;2023-04-10T02:21:52;99783.44;;;5.23;100.00
30554;BME280;17335;50.720;7.452;2023-04-10T02:24:19;99784.00;;;5.29;100.00
30554;BME280;17335;50.720;7.452;2023-04-10T02:26:48;99795.22;;;5.47;100.00
30554;BME280;17335;50.720;7.452;2023-04-10T02:29:14;99795.75;;;5.39;100.00
30554;BME280;17335;50.720;7.452;2023-04-10T02:31:41;99787.00;;;5.37;100.00
30554;BME280;17335;50.720;7.452;2023-04-10T02:34:08;99784.16;;;5.40;100.00
30554;BME280;17335;50.720;7.452;2023-04-10T02:36:39;99774.91;;;5.45;100.00
30554;BME280;17335;50.720;7.452;2023-04-10T02:39:06;99782.16;;;5.43;100.00
30554;BME280;17335;50.720;7.452;2023-04-10T02:41:35;99779.38;;;5.45;100.00
30554;BME280;17335;50.720;7.452;2023-04-10T02:44:02;99771.16;;;5.48;100.00
30554;BME280;17335;50.720;7.452;2023-04-10T02:46:28;99767.91;;;5.57;100.00
30554;BME280;17335;50.720;7.452;2023-04-10T02:48:55;99751.44;;;5.38;100.00
30554;BME280;17335;50.720;7.452;2023-04-10T02:51:22;99762.69;;;5.29;100.00
30554;BME280;17335;50.720;7.452;2023-04-10T02:53:48;99755.63;;;5.42;100.00
30554;BME280;17335;50.720;7.452;2023-04-10T02:56:15;99763.81;;;5.52;100.00
30554;BME280;17335;50.720;7.452;2023-04-10T02:58:41;99760.22;;;5.53;100.00
30554;BME280;17335;50.720;7.452;2023-04-10T03:01:12;99760.63;;;5.47;100.00
30554;BME280;17335;50.720;7.452;2023-04-10T03:03:38;99764.44;;;5.42;100.00
30554;BME280;17335;50.720;7.452;2023-04-10T03:06:05;99759.09;;;5.30;100.00
30554;BME280;17335;50.720;7.452;2023-04-10T03:08:33;99758.63;;;5.23;100.00
30554;BME280;17335;50.720;7.452;2023-04-10T03:11:00;99759.88;;;5.17;100.00
30554;BME280;17335;50.720;7.452;2023-04-10T03:13:26;99757.53;;;5.13;100.00
30554;BME280;17335;50.720;7.452;2023-04-10T03:15:53;99754.97;;;5.11;100.00
30554;BME280;17335;50.720;7.452;2023-04-10T03:18:19;99770.00;;;4.98;100.00
30554;BME280;17335;50.720;7.452;2023-04-10T03:20:47;99765.19;;;4.90;100.00
30554;BME280;17335;50.720;7.452;2023-04-10T03:23:14;99773.84;;;4.94;100.00
30554;BME280;17335;50.720;7.452;2023-04-10T03:25:41;99761.00;;;4.86;100.00
30554;BME280;17335;50.720;7.452;2023-04-10T03:28:08;99764.50;;;4.86;100.00
30554;BME280;17335;50.720;7.452;2023-04-10T03:30:35;99757.50;;;4.85;100.00
30554;BME280;17335;50.720;7.452;2023-04-10T03:33:02;99755.13;;;4.81;100.00
30554;BME280;17335;50.720;7.452;2023-04-10T03:35:29;99757.66;;;4.97;100.00
30554;BME280;17335;50.720;7.452;2023-04-10T03:37:55;99750.13;;;5.03;100.00
30554;BME280;17335;50.720;7.452;2023-04-10T03:40:21;99745.97;;;4.99;100.00
30554;BME280;17335;50.720;7.452;2023-04-10T03:42:48;99743.41;;;4.98;100.00
30554;BME280;17335;50.720;7.452;2023-04-10T03:45:14;99736.19;;;5.00;100.00
30554;BME280;17335;50.720;7.452;2023-04-10T03:47:41;99736.47;;;5.22;100.00
30554;BME280;17335;50.720;7.452;2023-04-10T03:50:08;99724.41;;;5.44;100.00
30554;BME280;17335;50.720;7.452;2023-04-10T03:52:34;99729.28;;;5.37;100.00
30554;BME280;17335;50.720;7.452;2023-04-10T03:55:01;99726.53;;;5.39;100.00
30554;BME280;17335;50.720;7.452;2023-04-10T03:57:27;99717.38;;;5.43;100.00
30554;BME280;17335;50.720;7.452;2023-04-10T03:59:54;99717.59;;;5.40;100.00
30554;BME280;17335;50.720;7.452;2023-04-10T04:02:20;99715.06;;;5.51;100.00
30554;BME280;17335;50.720;7.452;2023-04-10T04:04:47;99705.97;;;5.41;100.00
30554;BME280;17335;50.720;7.452;2023-04-10T04:07:14;99716.31;;;5.45;100.00
30554;BME280;17335;50.720;7.452;2023-04-10T04:09:40;99710.34;;;5.42;100.00
30554;BME280;17335;50.720;7.452;2023-04-10T04:12:07;99712.91;;;5.43;100.00
30554;BME280;17335;50.720;7.452;2023-04-10T04:14:33;99706.00;;;5.54;100.00
30554;BME280;17335;50.720;7.452;2023-04-10T04:17:00;99708.97;;;5.49;100.00
30554;BME280;17335;50.720;7.452;2023-04-10T04:19:27;99705.91;;;5.55;100.00
30554;BME280;17335;50.720;7.452;2023-04-10T04:21:54;99705.69;;;5.58;100.00
30554;BME280;17335;50.720;7.452;2023-04-10T04:24:20;99699.06;;;5.51;100.00
30554;BME280;17335;50.720;7.452;2023-04-10T04:26:47;99703.03;;;5.58;100.00
30554;BME280;17335;50.720;7.452;2023-04-10T04:29:14;99706.50;;;5.46;100.00
30554;BME280;17335;50.720;7.452;2023-04-10T04:31:40;99689.41;;;5.50;100.00
30554;BME280;17335;50.720;7.452;2023-04-10T04:34:07;99701.00;;;5.49;100.00
30554;BME280;17335;50.720;7.452;2023-04-10T04:36:33;99713.75;;;5.44;100.00
30554;BME280;17335;50.720;7.452;2023-04-10T04:39:00;99705.88;;;5.42;100.00
30554;BME280;17335;50.720;7.452;2023-04-10T04:41:26;99710.56;;;5.39;100.00
30554;BME280;17335;50.720;7.452;2023-04-10T04:43:56;99704.59;;;5.48;100.00
30554;BME280;17335;50.720;7.452;2023-04-10T04:46:22;99702.16;;;5.45;100.00
30554;BME280;17335;50.720;7.452;2023-04-10T04:48:49;99704.84;;;5.58;100.00
30554;BME280;17335;50.720;7.452;2023-04-10T04:51:16;99705.78;;;5.57;100.00
30554;BME280;17335;50.720;7.452;2023-04-10T04:53:42;99707.19;;;5.62;100.00
30554;BME280;17335;50.720;7.452;2023-04-10T04:56:09;99712.53;;;5.62;100.00
30554;BME280;17335;50.720;7.452;2023-04-10T04:58:35;99714.22;;;5.63;100.00
30554;BME280;17335;50.720;7.452;2023-04-10T05:01:03;99714.44;;;5.60;100.00
30554;BME280;17335;50.720;7.452;2023-04-10T05:03:29;99712.94;;;5.56;100.00
30554;BME280;17335;50.720;7.452;2023-04-10T05:05:56;99713.78;;;5.57;100.00
30554;BME280;17335;50.720;7.452;2023-04-10T05:08:23;99710.59;;;5.64;100.00
30554;BME280;17335;50.720;7.452;2023-04-10T05:10:49;99707.00;;;5.66;100.00
30554;BME280;17335;50.720;7.452;2023-04-10T05:13:17;99709.13;;;5.60;100.00
30554;BME280;17335;50.720;7.452;2023-04-10T05:15:43;99701.44;;;5.69;100.00
30554;BME280;17335;50.720;7.452;2023-04-10T05:18:10;99707.31;;;5.74;100.00
30554;BME280;17335;50.720;7.452;2023-04-10T05:20:36;99701.66;;;5.66;100.00
30554;BME280;17335;50.720;7.452;2023-04-10T05:23:03;99709.75;;;5.77;100.00
30554;BME280;17335;50.720;7.452;2023-04-10T05:25:30;99693.13;;;5.86;100.00
30554;BME280;17335;50.720;7.452;2023-04-10T05:27:56;99701.28;;;5.97;100.00
30554;BME280;17335;50.720;7.452;2023-04-10T05:30:23;99694.91;;;6.00;100.00
30554;BME280;17335;50.720;7.452;2023-04-10T05:32:50;99702.03;;;5.99;100.00
30554;BME280;17335;50.720;7.452;2023-04-10T05:35:16;99696.06;;;6.09;100.00
30554;BME280;17335;50.720;7.452;2023-04-10T05:37:43;99695.09;;;6.10;100.00
30554;BME280;17335;50.720;7.452;2023-04-10T05:40:09;99699.38;;;6.12;100.00
30554;BME280;17335;50.720;7.452;2023-04-10T05:42:36;99706.19;;;6.16;100.00
30554;BME280;17335;50.720;7.452;2023-04-10T05:45:02;99695.31;;;6.19;100.00
30554;BME280;17335;50.720;7.452;2023-04-10T05:47:29;99704.47;;;6.28;100.00
30554;BME280;17335;50.720;7.452;2023-04-10T05:49:56;99710.53;;;6.30;100.00
30554;BME280;17335;50.720;7.452;2023-04-10T05:52:22;99711.28;;;6.45;100.00
30554;BME280;17335;50.720;7.452;2023-04-10T05:54:49;99697.63;;;6.50;100.00
30554;BME280;17335;50.720;7.452;2023-04-10T05:57:17;99699.91;;;6.67;100.00
30554;BME280;17335;50.720;7.452;2023-04-10T05:59:43;99707.44;;;6.73;100.00
30554;BME280;17335;50.720;7.452;2023-04-10T06:02:10;99710.41;;;6.82;100.00
30554;BME280;17335;50.720;7.452;2023-04-10T06:04:37;99698.44;;;6.87;100.00
30554;BME280;17335;50.720;7.452;2023-04-10T06:07:04;99706.53;;;6.99;100.00
30554;BME280;17335;50.720;7.452;2023-04-10T06:09:31;99700.59;;;7.06;100.00
30554;BME280;17335;50.720;7.452;2023-04-10T06:11:57;99706.13;;;7.16;100.00
30554;BME280;17335;50.720;7.452;2023-04-10T06:14:24;99704.69;;;7.23;100.00
30554;BME280;17335;50.720;7.452;2023-04-10T06:16:50;99706.09;;;7.40;100.00
30554;BME280;17335;50.720;7.452;2023-04-10T06:19:17;99701.97;;;7.36;100.00
30554;BME280;17335;50.720;7.452;2023-04-10T06:21:43;99704.91;;;7.44;100.00
30554;BME280;17335;50.720;7.452;2023-04-10T06:24:09;99697.38;;;7.49;100.00
30554;BME280;17335;50.720;7.452;2023-04-10T06:26:38;99690.34;;;7.48;100.00
30554;BME280;17335;50.720;7.452;2023-04-10T06:29:05;99693.03;;;7.60;100.00
30554;BME280;17335;50.720;7.452;2023-04-10T06:31:32;99684.28;;;7.58;100.00
30554;BME280;17335;50.720;7.452;2023-04-10T06:33:59;99689.88;;;7.55;100.00
30554;BME280;17335;50.720;7.452;2023-04-10T06:36:26;99687.47;;;7.63;100.00
30554;BME280;17335;50.720;7.452;2023-04-10T06:38:53;99691.13;;;7.62;100.00
30554;BME280;17335;50.720;7.452;2023-04-10T06:41:20;99685.41;;;7.55;100.00
30554;BME280;17335;50.720;7.452;2023-04-10T06:43:47;99689.41;;;7.61;100.00
30554;BME280;17335;50.720;7.452;2023-04-10T06:46:13;99693.81;;;7.62;100.00
30554;BME280;17335;50.720;7.452;2023-04-10T06:48:41;99688.69;;;7.70;100.00
30554;BME280;17335;50.720;7.452;2023-04-10T06:51:07;99694.03;;;7.70;100.00
30554;BME280;17335;50.720;7.452;2023-04-10T06:53:34;99700.88;;;7.74;100.00
30554;BME280;17335;50.720;7.452;2023-04-10T06:56:01;99695.03;;;7.80;100.00
30554;BME280;17335;50.720;7.452;2023-04-10T06:58:29;99691.19;;;7.84;100.00
30554;BME280;17335;50.720;7.452;2023-04-10T07:00:56;99697.28;;;7.98;100.00
30554;BME280;17335;50.720;7.452;2023-04-10T07:03:24;99698.63;;;8.03;100.00
30554;BME280;17335;50.720;7.452;2023-04-10T07:05:51;99692.66;;;8.11;100.00
30554;BME280;17335;50.720;7.452;2023-04-10T07:08:17;99692.78;;;8.21;100.00
30554;BME280;17335;50.720;7.452;2023-04-10T07:10:44;99687.56;;;8.31;100.00
30554;BME280;17335;50.720;7.452;2023-04-10T07:13:10;99676.59;;;8.34;100.00
30554;BME280;17335;50.720;7.452;2023-04-10T07:15:37;99679.91;;;8.37;100.00
30554;BME280;17335;50.720;7.452;2023-04-10T07:18:04;99683.72;;;8.46;100.00
30554;BME280;17335;50.720;7.452;2023-04-10T07:20:32;99690.97;;;8.55;100.00
30554;BME280;17335;50.720;7.452;2023-04-10T07:22:58;99695.84;;;8.61;100.00
30554;BME280;17335;50.720;7.452;2023-04-10T07:25:25;99683.63;;;8.80;100.00
30554;BME280;17335;50.720;7.452;2023-04-10T07:27:51;99687.78;;;8.84;100.00
30554;BME280;17335;50.720;7.452;2023-04-10T07:30:18;99694.56;;;8.88;100.00
30554;BME280;17335;50.720;7.452;2023-04-10T07:32:45;99692.25;;;8.95;100.00
30554;BME280;17335;50.720;7.452;2023-04-10T07:35:12;99685.53;;;9.00;100.00
30554;BME280;17335;50.720;7.452;2023-04-10T07:37:39;99690.16;;;9.10;100.00
30554;BME280;17335;50.720;7.452;2023-04-10T07:40:06;99684.25;;;9.16;100.00
30554;BME280;17335;50.720;7.452;2023-04-10T07:42:33;99677.75;;;9.30;100.00
30554;BME280;17335;50.720;7.452;2023-04-10T07:44:59;99676.59;;;9.44;100.00
30554;BME280;17335;50.720;7.452;2023-04-10T07:47:26;99677.97;;;9.59;100.00
30554;BME280;17335;50.720;7.452;2023-04-10T07:49:52;99665.69;;;9.77;100.00
30554;BME280;17335;50.720;7.452;2023-04-10T07:52:19;99672.66;;;9.90;100.00
30554;BME280;17335;50.720;7.452;2023-04-10T07:54:46;99652.25;;;9.99;100.00
30554;BME280;17335;50.720;7.452;2023-04-10T07:57:12;99645.09;;;10.09;100.00
30554;BME280;17335;50.720;7.452;2023-04-10T07:59:39;99642.13;;;10.33;100.00
30554;BME280;17335;50.720;7.452;2023-04-10T08:02:05;99630.19;;;10.47;100.00
30554;BME280;17335;50.720;7.452;2023-04-10T08:04:32;99630.63;;;10.62;100.00
30554;BME280;17335;50.720;7.452;2023-04-10T08:06:59;99630.38;;;10.84;100.00
30554;BME280;17335;50.720;7.452;2023-04-10T08:09:26;99621.34;;;11.05;100.00
30554;BME280;17335;50.720;7.452;2023-04-10T08:11:53;99619.91;;;11.20;100.00
30554;BME280;17335;50.720;7.452;2023-04-10T08:14:19;99619.78;;;11.32;100.00
30554;BME280;17335;50.720;7.452;2023-04-10T08:16:46;99624.16;;;11.33;100.00
30554;BME280;17335;50.720;7.452;2023-04-10T08:19:12;99613.69;;;11.49;100.00
30554;BME280;17335;50.720;7.452;2023-04-10T08:21:39;99612.56;;;11.42;100.00
30554;BME280;17335;50.720;7.452;2023-04-10T08:24:05;99620.75;;;11.50;100.00
30554;BME280;17335;50.720;7.452;2023-04-10T08:26:32;99613.69;;;11.49;100.00
30554;BME280;17335;50.720;7.452;2023-04-10T08:28:59;99612.84;;;11.49;100.00
30554;BME280;17335;50.720;7.452;2023-04-10T08:31:27;99613.53;;;11.51;100.00
30554;BME280;17335;50.720;7.452;2023-04-10T08:33:54;99610.84;;;11.60;100.00
30554;BME280;17335;50.720;7.452;2023-04-10T08:36:21;99601.06;;;11.69;100.00
30554;BME280;17335;50.720;7.452;2023-04-10T08:38:48;99602.72;;;11.80;100.00
30554;BME280;17335;50.720;7.452;2023-04-10T08:41:17;99600.03;;;11.80;100.00
30554;BME280;17335;50.720;7.452;2023-04-10T08:43:44;99590.66;;;11.84;100.00
30554;BME280;17335;50.720;7.452;2023-04-10T08:46:14;99591.94;;;11.90;100.00
30554;BME280;17335;50.720;7.452;2023-04-10T08:48:46;99587.28;;;11.92;100.00
30554;BME280;17335;50.720;7.452;2023-04-10T08:51:20;99592.16;;;12.06;100.00
30554;BME280;17335;50.720;7.452;2023-04-10T08:53:53;99595.81;;;12.15;100.00
30554;BME280;17335;50.720;7.452;2023-04-10T08:56:23;99598.63;;;12.13;100.00
30554;BME280;17335;50.720;7.452;2023-04-10T08:58:50;99590.22;;;12.26;100.00
30554;BME280;17335;50.720;7.452;2023-04-10T09:01:20;99592.41;;;12.41;100.00
30554;BME280;17335;50.720;7.452;2023-04-10T09:03:47;99588.16;;;12.66;100.00
30554;BME280;17335;50.720;7.452;2023-04-10T09:06:14;99574.06;;;12.72;99.04
30554;BME280;17335;50.720;7.452;2023-04-10T09:08:40;99574.00;;;12.82;96.26
30554;BME280;17335;50.720;7.452;2023-04-10T09:11:07;99565.69;;;12.93;93.26
30554;BME280;17335;50.720;7.452;2023-04-10T09:13:38;99570.56;;;12.89;95.68
30554;BME280;17335;50.720;7.452;2023-04-10T09:16:06;99569.06;;;13.13;100.00
30554;BME280;17335;50.720;7.452;2023-04-10T09:18:49;99552.25;;;13.37;100.00
30554;BME280;17335;50.720;7.452;2023-04-10T09:21:19;99544.66;;;13.59;96.99
30554;BME280;17335;50.720;7.452;2023-04-10T09:23:47;99546.59;;;13.75;91.54
30554;BME280;17335;50.720;7.452;2023-04-10T09:26:27;99529.47;;;13.92;95.87
30554;BME280;17335;50.720;7.452;2023-04-10T09:28:56;99522.44;;;13.99;90.96
30554;BME280;17335;50.720;7.452;2023-04-10T09:34:19;99522.31;;;14.17;80.08
30554;BME280;17335;50.720;7.452;2023-04-10T09:36:56;99514.56;;;14.22;84.80
30554;BME280;17335;50.720;7.452;2023-04-10T09:39:34;99510.50;;;14.10;75.35
30554;BME280;17335;50.720;7.452;2023-04-10T09:42:00;99504.91;;;14.03;82.88
30554;BME280;17335;50.720;7.452;2023-04-10T09:46:57;99494.66;;;14.15;78.14
30554;BME280;17335;50.720;7.452;2023-04-10T09:49:24;99481.34;;;14.22;80.50
30554;BME280;17335;50.720;7.452;2023-04-10T09:51:51;99486.56;;;14.32;79.86
30554;BME280;17335;50.720;7.452;2023-04-10T09:54:17;99481.22;;;14.48;77.41
30554;BME280;17335;50.720;7.452;2023-04-10T09:56:44;99470.44;;;14.56;81.23
30554;BME280;17335;50.720;7.452;2023-04-10T09:59:13;99477.56;;;14.74;72.75
30554;BME280;17335;50.720;7.452;2023-04-10T10:01:40;99473.84;;;14.91;76.67
30554;BME280;17335;50.720;7.452;2023-04-10T10:04:08;99480.56;;;14.95;65.95
30554;BME280;17335;50.720;7.452;2023-04-10T10:06:37;99490.06;;;14.99;62.03
30554;BME280;17335;50.720;7.452;2023-04-10T10:09:04;99479.91;;;15.18;67.18
30554;BME280;17335;50.720;7.452;2023-04-10T10:11:33;99477.34;;;15.25;64.36
30554;BME280;17335;50.720;7.452;2023-04-10T10:14:02;99476.66;;;15.14;61.28
30554;BME280;17335;50.720;7.452;2023-04-10T10:19:09;99462.66;;;15.11;60.11
30554;BME280;17335;50.720;7.452;2023-04-10T10:21:38;99449.28;;;15.17;61.58
30554;BME280;17335;50.720;7.452;2023-04-10T10:24:08;99446.56;;;15.34;59.04
30554;BME280;17335;50.720;7.452;2023-04-10T10:26:38;99456.34;;;15.35;64.85
30554;BME280;17335;50.720;7.452;2023-04-10T10:29:07;99451.25;;;15.40;57.77
30554;BME280;17335;50.720;7.452;2023-04-10T10:31:36;99441.63;;;15.46;57.10
30554;BME280;17335;50.720;7.452;2023-04-10T10:34:03;99452.47;;;15.37;56.13
30554;BME280;17335;50.720;7.452;2023-04-10T10:36:33;99439.44;;;15.41;52.89
30554;BME280;17335;50.720;7.452;2023-04-10T10:47:13;99435.63;;;15.67;62.46
30554;BME280;17335;50.720;7.452;2023-04-10T10:52:39;99424.41;;;15.86;57.27
30554;BME280;17335;50.720;7.452;2023-04-10T10:58:08;99414.97;;;15.82;52.59
30554;BME280;17335;50.720;7.452;2023-04-10T11:05:55;99397.41;;;16.24;54.47
30554;BME280;17335;50.720;7.452;2023-04-10T11:11:06;99362.50;;;16.53;52.09
30554;BME280;17335;50.720;7.452;2023-04-10T11:13:34;99377.75;;;16.68;56.16
30554;BME280;17335;50.720;7.452;2023-04-10T11:16:01;99366.59;;;16.48;47.46
30554;BME280;17335;50.720;7.452;2023-04-10T11:21:12;99362.16;;;16.56;48.90
30554;BME280;17335;50.720;7.452;2023-04-10T11:28:59;99335.91;;;16.71;47.89
30554;BME280;17335;50.720;7.452;2023-04-10T11:31:25;99325.72;;;16.73;47.99
30554;BME280;17335;50.720;7.452;2023-04-10T11:36:23;99311.56;;;17.01;45.77
30554;BME280;17335;50.720;7.452;2023-04-10T11:41:30;99305.63;;;16.82;47.74
30554;BME280;17335;50.720;7.452;2023-04-10T11:44:01;99305.88;;;16.73;46.34
30554;BME280;17335;50.720;7.452;2023-04-10T11:46:29;99295.28;;;16.86;48.60
30554;BME280;17335;50.720;7.452;2023-04-10T11:49:01;99290.91;;;16.85;48.58
30554;BME280;17335;50.720;7.452;2023-04-10T11:51:28;99285.28;;;16.86;49.08
30554;BME280;17335;50.720;7.452;2023-04-10T11:54:13;99275.47;;;16.85;48.64
30554;BME280;17335;50.720;7.452;2023-04-10T11:56:41;99265.72;;;16.91;47.83
30554;BME280;17335;50.720;7.452;2023-04-10T11:59:08;99269.31;;;16.92;51.02
30554;BME280;17335;50.720;7.452;2023-04-10T12:01:45;99273.22;;;17.04;48.43
30554;BME280;17335;50.720;7.452;2023-04-10T12:04:20;99264.44;;;17.02;47.95
30554;BME280;17335;50.720;7.452;2023-04-10T12:09:16;99259.16;;;16.71;44.85
30554;BME280;17335;50.720;7.452;2023-04-10T12:11:53;99248.41;;;16.77;50.46
30554;BME280;17335;50.720;7.452;2023-04-10T12:14:22;99256.91;;;16.74;48.45
30554;BME280;17335;50.720;7.452;2023-04-10T12:16:49;99241.97;;;16.78;49.78
30554;BME280;17335;50.720;7.452;2023-04-10T12:19:17;99249.63;;;16.75;47.22
30554;BME280;17335;50.720;7.452;2023-04-10T12:21:45;99239.16;;;16.72;45.13
30554;BME280;17335;50.720;7.452;2023-04-10T12:24:11;99240.75;;;16.81;45.71
30554;BME280;17335;50.720;7.452;2023-04-10T12:26:46;99238.06;;;16.96;50.75
30554;BME280;17335;50.720;7.452;2023-04-10T12:29:13;99239.91;;;16.80;46.14
30554;BME280;17335;50.720;7.452;2023-04-10T12:31:39;99237.09;;;16.74;45.62
30554;BME280;17335;50.720;7.452;2023-04-10T12:34:06;99234.97;;;16.84;47.77
30554;BME280;17335;50.720;7.452;2023-04-10T12:36:35;99230.09;;;16.94;44.72
30554;BME280;17335;50.720;7.452;2023-04-10T12:39:03;99234.47;;;17.10;46.13
30554;BME280;17335;50.720;7.452;2023-04-10T12:41:32;99227.22;;;16.96;45.10
30554;BME280;17335;50.720;7.452;2023-04-10T12:44:12;99230.28;;;17.08;51.86
30554;BME280;17335;50.720;7.452;2023-04-10T12:46:40;99220.72;;;17.12;51.47
30554;BME280;17335;50.720;7.452;2023-04-10T12:49:09;99213.50;;;17.19;50.70
30554;BME280;17335;50.720;7.452;2023-04-10T12:54:11;99215.91;;;17.29;46.74
30554;BME280;17335;50.720;7.452;2023-04-10T12:56:51;99211.41;;;17.36;50.96
30554;BME280;17335;50.720;7.452;2023-04-10T12:59:19;99209.47;;;17.30;49.31
30554;BME280;17335;50.720;7.452;2023-04-10T13:01:46;99201.38;;;17.15;48.80
30554;BME280;17335;50.720;7.452;2023-04-10T13:04:12;99203.91;;;17.38;51.39
30554;BME280;17335;50.720;7.452;2023-04-10T13:06:47;99202.75;;;17.47;50.71
30554;BME280;17335;50.720;7.452;2023-04-10T13:09:14;99192.03;;;17.82;52.07
30554;BME280;17335;50.720;7.452;2023-04-10T13:11:41;99186.19;;;17.85;48.36
30554;BME280;17335;50.720;7.452;2023-04-10T13:14:08;99181.69;;;17.92;48.02
30554;BME280;17335;50.720;7.452;2023-04-10T13:16:35;99187.97;;;17.93;46.28
30554;BME280;17335;50.720;7.452;2023-04-10T13:19:02;99184.25;;;17.79;51.19
30554;BME280;17335;50.720;7.452;2023-04-10T13:21:28;99168.81;;;17.58;47.56
30554;BME280;17335;50.720;7.452;2023-04-10T13:23:56;99180.19;;;17.25;49.72
30554;BME280;17335;50.720;7.452;2023-04-10T13:26:23;99179.69;;;17.00;49.98
30554;BME280;17335;50.720;7.452;2023-04-10T13:28:49;99173.91;;;16.88;50.73
30554;BME280;17335;50.720;7.452;2023-04-10T13:31:16;99174.47;;;16.83;50.38
30554;BME280;17335;50.720;7.452;2023-04-10T13:33:44;99158.50;;;16.74;51.71
30554;BME280;17335;50.720;7.452;2023-04-10T13:36:13;99152.19;;;17.03;52.12
30554;BME280;17335;50.720;7.452;2023-04-10T13:38:40;99165.84;;;17.10;51.42
30554;BME280;17335;50.720;7.452;2023-04-10T13:41:07;99154.78;;;17.11;52.35
30554;BME280;17335;50.720;7.452;2023-04-10T13:43:33;99152.81;;;17.20;51.10
30554;BME280;17335;50.720;7.452;2023-04-10T13:46:00;99135.81;;;17.11;50.58
30554;BME280;17335;50.720;7.452;2023-04-10T13:48:27;99137.72;;;17.17;53.38
30554;BME280;17335;50.720;7.452;2023-04-10T13:51:05;99132.78;;;17.21;50.52
30554;BME280;17335;50.720;7.452;2023-04-10T13:53:31;99134.13;;;17.10;51.88
30554;BME280;17335;50.720;7.452;2023-04-10T13:55:58;99123.41;;;17.02;47.69
30554;BME280;17335;50.720;7.452;2023-04-10T13:58:25;99122.13;;;17.19;51.27
30554;BME280;17335;50.720;7.452;2023-04-10T14:00:53;99101.97;;;17.29;51.79
30554;BME280;17335;50.720;7.452;2023-04-10T14:03:20;99106.13;;;17.24;55.36
30554;BME280;17335;50.720;7.452;2023-04-10T14:05:47;99101.34;;;17.27;53.19
30554;BME280;17335;50.720;7.452;2023-04-10T14:08:13;99092.41;;;17.33;54.81